Time;durP1;ratioP1;P1;durP2;ratioP2;P2;SDS_P1;SDS_P2;PMS_P1;PMS_P2;Temp;Humidity;BMP_temperature;BMP_pressure;BME280_temperature;BME280_humidity;BME280_pressure;Samples;Min_cycle;Max_cycle;Signal;HPM_P1;HPM_P2
2023/04/23 00:01:53;;;;;;;10.02;4.80;;;17.10;57.80;;;;;;4995146;28;20708;-68
2023/04/23 00:04:21;;;;;;;7.72;4.97;;;17.10;57.70;;;;;;4996569;28;20045;-69
2023/04/23 00:06:48;;;;;;;7.57;5.10;;;17.20;57.70;;;;;;4999898;28;20050;-68
2023/04/23 00:09:15;;;;;;;7.88;5.00;;;17.10;57.90;;;;;;4999226;28;20018;-68
2023/04/23 00:11:42;;;;;;;6.22;4.32;;;17.20;58.20;;;;;;4998042;28;20033;-68
2023/04/23 00:14:08;;;;;;;7.72;4.82;;;17.10;58.00;;;;;;5001281;28;20029;-69
2023/04/23 00:16:34;;;;;;;9.20;4.88;;;17.10;57.90;;;;;;5000159;28;20103;-69
2023/04/23 00:18:59;;;;;;;6.53;4.68;;;17.10;58.10;;;;;;4998861;28;20042;-69
2023/04/23 00:21:26;;;;;;;8.48;5.10;;;17.10;58.30;;;;;;5000538;28;20033;-68
2023/04/23 00:23:52;;;;;;;7.55;4.88;;;17.10;58.50;;;;;;4998481;28;20065;-68
2023/04/23 00:26:18;;;;;;;6.78;4.40;;;17.00;59.60;;;;;;4996956;28;20153;-69
2023/04/23 00:28:43;;;;;;;8.88;5.43;;;17.10;59.80;;;;;;4993472;28;20034;-69
2023/04/23 00:31:10;;;;;;;8.55;4.75;;;17.10;61.80;;;;;;4994392;28;20125;-68
2023/04/23 00:33:36;;;;;;;6.80;4.88;;;17.10;62.40;;;;;;4998009;28;20838;-67
2023/04/23 00:36:02;;;;;;;11.30;6.30;;;17.10;61.10;;;;;;4982959;28;20125;-68
2023/04/23 00:38:27;;;;;;;9.90;4.75;;;17.10;62.10;;;;;;4984375;28;20149;-68
2023/04/23 00:40:53;;;;;;;9.13;4.63;;;17.10;62.50;;;;;;4998654;28;20034;-69
2023/04/23 00:43:19;;;;;;;9.27;5.43;;;17.00;62.30;;;;;;4986958;28;20196;-69
2023/04/23 00:45:46;;;;;;;10.48;5.50;;;17.00;64.20;;;;;;5000108;28;20049;-68
2023/04/23 00:48:12;;;;;;;8.27;5.55;;;17.00;66.20;;;;;;5003397;28;21082;-69
2023/04/23 00:50:38;;;;;;;10.40;4.90;;;17.00;66.30;;;;;;4983805;28;20026;-68
2023/04/23 00:53:04;;;;;;;9.90;5.25;;;16.80;66.40;;;;;;4988491;28;20026;-69
2023/04/23 00:55:31;;;;;;;12.35;5.18;;;16.70;69.00;;;;;;4987866;28;20034;-69
2023/04/23 00:57:57;;;;;;;7.68;5.00;;;16.60;68.90;;;;;;5004191;28;20073;-69
2023/04/23 01:00:23;;;;;;;8.43;5.00;;;16.50;69.80;;;;;;4976316;28;20137;-69
2023/04/23 01:02:49;;;;;;;10.23;4.97;;;16.50;69.10;;;;;;4985821;28;20036;-69
2023/04/23 01:05:17;;;;;;;7.47;4.75;;;16.50;69.90;;;;;;4986229;28;20068;-69
2023/04/23 01:07:44;;;;;;;7.15;4.80;;;16.40;70.70;;;;;;4987750;28;20674;-69
2023/04/23 01:10:11;;;;;;;6.97;4.70;;;16.40;70.80;;;;;;4996938;28;20041;-68
2023/04/23 01:12:36;;;;;;;7.18;4.70;;;16.40;71.60;;;;;;4985706;28;20116;-69
2023/04/23 01:15:04;;;;;;;10.18;4.55;;;16.40;71.30;;;;;;4997674;28;20128;-69
2023/04/23 01:17:31;;;;;;;7.95;5.20;;;16.50;71.90;;;;;;4997775;28;20037;-69
2023/04/23 01:19:57;;;;;;;8.60;5.03;;;16.40;71.70;;;;;;4983887;28;20591;-68
2023/04/23 01:22:23;;;;;;;12.45;5.07;;;16.50;71.30;;;;;;5000621;28;20038;-68
2023/04/23 01:24:49;;;;;;;8.60;5.22;;;16.40;71.70;;;;;;4999053;28;20065;-68
2023/04/23 01:27:15;;;;;;;6.65;4.88;;;16.40;71.80;;;;;;4985373;28;20771;-68
2023/04/23 01:29:41;;;;;;;7.78;5.03;;;16.40;72.20;;;;;;5000699;28;20027;-69
2023/04/23 01:32:08;;;;;;;11.02;5.50;;;16.40;72.30;;;;;;4987608;28;20038;-69
2023/04/23 01:34:37;;;;;;;11.93;5.53;;;16.40;71.70;;;;;;4986729;28;20034;-69
2023/04/23 01:37:04;;;;;;;8.15;5.25;;;16.40;71.80;;;;;;4985487;28;20045;-68
2023/04/23 01:39:30;;;;;;;8.20;5.43;;;16.40;72.40;;;;;;4981117;28;20034;-68
2023/04/23 01:41:56;;;;;;;6.93;4.93;;;16.40;72.50;;;;;;4995333;28;20037;-69
2023/04/23 01:44:22;;;;;;;6.40;4.88;;;16.50;73.50;;;;;;4995566;28;20480;-69
2023/04/23 01:46:48;;;;;;;5.78;4.53;;;16.50;74.80;;;;;;4996004;28;20517;-69
2023/04/23 01:49:13;;;;;;;8.10;5.60;;;16.50;75.10;;;;;;4990096;28;20039;-69
2023/04/23 01:51:39;;;;;;;7.32;5.32;;;16.50;74.50;;;;;;4983932;28;20030;-68
2023/04/23 01:54:05;;;;;;;10.75;5.32;;;16.50;74.80;;;;;;4992534;28;20509;-69
2023/04/23 01:56:33;;;;;;;10.02;5.13;;;16.40;75.10;;;;;;4999726;28;20045;-68
2023/04/23 01:59:00;;;;;;;9.73;5.07;;;16.40;75.50;;;;;;4986026;28;20684;-68
2023/04/23 02:01:46;;;;;;;9.07;5.47;;;16.40;75.40;;;;;;4996307;28;20045;-68
2023/04/23 02:04:13;;;;;;;14.77;5.68;;;16.40;76.30;;;;;;4984799;28;20087;-68
2023/04/23 02:06:40;;;;;;;7.72;4.80;;;16.30;77.00;;;;;;4983382;28;20130;-69
2023/04/23 02:09:06;;;;;;;8.35;4.88;;;16.30;77.40;;;;;;4984231;28;20591;-69
2023/04/23 02:11:32;;;;;;;9.07;5.57;;;16.30;77.80;;;;;;4983490;28;20498;-68
2023/04/23 02:13:59;;;;;;;7.63;5.80;;;16.30;78.30;;;;;;4992183;28;20081;-68
2023/04/23 02:16:27;;;;;;;7.63;5.53;;;16.40;78.70;;;;;;4994510;28;20034;-69
2023/04/23 02:18:54;;;;;;;6.97;4.93;;;16.40;79.50;;;;;;4995410;28;20030;-68
2023/04/23 02:21:22;;;;;;;7.38;5.22;;;16.30;79.00;;;;;;4981026;28;20042;-68
2023/04/23 02:23:47;;;;;;;11.85;5.57;;;16.30;79.50;;;;;;5000214;28;20141;-68
2023/04/23 02:26:13;;;;;;;8.88;5.82;;;16.30;79.90;;;;;;4996598;28;20116;-69
2023/04/23 02:28:39;;;;;;;13.07;6.15;;;16.30;79.60;;;;;;4999582;28;20064;-68
2023/04/23 02:31:05;;;;;;;9.93;5.32;;;16.40;80.60;;;;;;5000896;28;20038;-68
2023/04/23 02:33:31;;;;;;;7.65;5.32;;;16.30;80.70;;;;;;5001385;28;20064;-68
2023/04/23 02:35:57;;;;;;;8.50;5.88;;;16.30;81.30;;;;;;4985422;28;20128;-68
2023/04/23 02:38:23;;;;;;;9.50;5.15;;;16.30;82.50;;;;;;4984709;28;20029;-68
2023/04/23 02:40:48;;;;;;;13.25;5.72;;;16.30;83.00;;;;;;4985970;28;20036;-68
2023/04/23 02:43:14;;;;;;;9.07;5.45;;;16.30;84.00;;;;;;4984466;28;20072;-68
2023/04/23 02:45:40;;;;;;;9.50;5.22;;;16.30;84.80;;;;;;4984160;28;20040;-69
2023/04/23 02:48:06;;;;;;;8.13;4.60;;;16.20;85.40;;;;;;4982895;28;20038;-68
2023/04/23 02:50:32;;;;;;;6.68;4.45;;;16.20;86.90;;;;;;4994524;28;20022;-69
2023/04/23 02:52:58;;;;;;;9.18;4.85;;;16.20;87.80;;;;;;4998970;28;20034;-69
2023/04/23 02:55:24;;;;;;;5.47;4.75;;;16.20;89.00;;;;;;4981539;28;20029;-68
2023/04/23 02:57:51;;;;;;;7.28;4.88;;;16.10;89.50;;;;;;4984540;28;20030;-68
2023/04/23 03:00:17;;;;;;;6.22;4.70;;;16.10;90.40;;;;;;4983657;28;20038;-68
2023/04/23 03:02:43;;;;;;;6.95;4.80;;;16.10;90.60;;;;;;4983059;28;20037;-68
2023/04/23 03:05:09;;;;;;;6.93;4.78;;;16.10;91.00;;;;;;4962095;28;20034;-69
2023/04/23 03:07:35;;;;;;;11.43;5.18;;;16.00;90.70;;;;;;4984844;28;20033;-68
2023/04/23 03:10:01;;;;;;;7.97;4.45;;;16.00;91.00;;;;;;4993613;28;20035;-68
2023/04/23 03:12:27;;;;;;;7.40;4.63;;;15.90;91.30;;;;;;4980389;28;20034;-69
2023/04/23 03:14:54;;;;;;;5.95;4.10;;;15.90;91.10;;;;;;4984339;28;20053;-69
2023/04/23 03:17:21;;;;;;;8.85;4.95;;;15.80;91.60;;;;;;4975684;28;20035;-69
2023/04/23 03:19:47;;;;;;;5.20;4.50;;;15.80;92.10;;;;;;4985066;28;20034;-69
2023/04/23 03:22:13;;;;;;;7.57;4.95;;;15.70;92.50;;;;;;4984869;28;20030;-69
2023/04/23 03:24:40;;;;;;;6.13;4.68;;;15.60;93.20;;;;;;4981292;28;20034;-69
2023/04/23 03:27:06;;;;;;;7.25;4.88;;;15.50;93.40;;;;;;4998008;28;20041;-69
2023/04/23 03:29:32;;;;;;;7.78;4.65;;;15.50;93.70;;;;;;4987676;28;20030;-69
2023/04/23 03:31:59;;;;;;;6.10;4.40;;;15.40;94.00;;;;;;4983002;28;20033;-68
2023/04/23 03:34:26;;;;;;;5.97;4.70;;;15.30;94.20;;;;;;4983755;28;20022;-68
2023/04/23 03:36:52;;;;;;;8.15;4.93;;;15.30;94.50;;;;;;4996831;28;20022;-69
2023/04/23 03:39:18;;;;;;;5.88;4.80;;;15.30;94.80;;;;;;4980503;28;20094;-69
2023/04/23 03:41:49;;;;;;;7.07;4.78;;;15.30;95.20;;;;;;4982810;28;20511;-69
2023/04/23 03:44:17;;;;;;;7.25;4.82;;;15.30;95.40;;;;;;4984462;28;20141;-68
2023/04/23 03:46:45;;;;;;;9.18;5.03;;;15.40;95.40;;;;;;4984725;28;20056;-69
2023/04/23 03:49:13;;;;;;;6.70;4.85;;;15.40;95.60;;;;;;4984956;28;20026;-68
2023/04/23 03:51:38;;;;;;;6.43;5.35;;;15.40;96.30;;;;;;5001867;28;20029;-69
2023/04/23 03:54:04;;;;;;;10.35;5.13;;;15.40;96.70;;;;;;4988455;28;20034;-68
2023/04/23 03:56:35;;;;;;;8.48;5.65;;;15.50;97.00;;;;;;4972179;28;20588;-68
2023/04/23 03:59:21;;;;;;;7.38;5.35;;;15.50;97.50;;;;;;4991662;28;20588;-68
2023/04/23 04:01:49;;;;;;;9.02;5.28;;;15.50;98.10;;;;;;4983079;28;20132;-68
2023/04/23 04:04:17;;;;;;;6.88;4.95;;;15.50;98.50;;;;;;4979639;28;20413;-68
2023/04/23 04:06:42;;;;;;;7.05;4.50;;;15.40;98.80;;;;;;4994288;28;20022;-68
2023/04/23 04:09:08;;;;;;;6.25;4.75;;;15.40;98.70;;;;;;4984547;28;20033;-69
2023/04/23 04:11:35;;;;;;;7.38;5.35;;;15.40;99.00;;;;;;4975371;28;20038;-68
2023/04/23 04:14:01;;;;;;;9.80;5.78;;;15.40;99.30;;;;;;4985823;28;20125;-69
2023/04/23 04:16:27;;;;;;;9.45;5.05;;;15.40;99.50;;;;;;4996717;28;20117;-68
2023/04/23 04:18:52;;;;;;;6.80;4.63;;;15.40;99.70;;;;;;4995776;28;20810;-69
2023/04/23 04:21:18;;;;;;;9.55;4.80;;;15.40;99.90;;;;;;4997585;28;20034;-69
2023/04/23 04:23:44;;;;;;;8.63;5.03;;;15.40;99.90;;;;;;4999633;28;20425;-69
2023/04/23 04:26:10;;;;;;;7.72;4.85;;;15.30;99.90;;;;;;4998823;28;20046;-69
2023/04/23 04:28:36;;;;;;;7.20;4.93;;;15.30;99.90;;;;;;4999320;28;20041;-69
2023/04/23 04:31:07;;;;;;;6.55;4.40;;;15.40;99.90;;;;;;5000315;28;20026;-69
2023/04/23 04:33:34;;;;;;;6.85;4.47;;;15.40;99.90;;;;;;4993904;28;20104;-69
2023/04/23 04:36:00;;;;;;;6.32;4.80;;;15.30;99.90;;;;;;4994802;28;20034;-69
2023/04/23 04:38:27;;;;;;;5.18;4.32;;;15.30;99.90;;;;;;4992047;28;20034;-69
2023/04/23 04:41:01;;;;;;;6.53;4.55;;;15.30;99.90;;;;;;4992633;28;20738;-69
2023/04/23 04:43:27;;;;;;;6.10;5.00;;;15.30;99.90;;;;;;4992345;28;20092;-69
2023/04/23 04:45:52;;;;;;;6.15;4.35;;;15.30;99.90;;;;;;4995032;28;20037;-69
2023/04/23 04:48:21;;;;;;;5.90;4.90;;;15.30;99.90;;;;;;4992471;28;20065;-69
2023/04/23 04:50:47;;;;;;;5.32;4.82;;;15.20;99.90;;;;;;4995966;28;20054;-69
2023/04/23 04:53:12;;;;;;;6.00;4.45;;;15.20;99.90;;;;;;4994147;28;20117;-69
2023/04/23 04:55:38;;;;;;;7.00;5.13;;;15.20;99.90;;;;;;4991707;28;20022;-69
2023/04/23 04:58:04;;;;;;;7.45;4.30;;;15.20;99.90;;;;;;4998683;28;20499;-69
2023/04/23 05:00:30;;;;;;;5.90;4.75;;;15.20;99.90;;;;;;4996939;28;20040;-69
2023/04/23 05:02:56;;;;;;;9.98;5.22;;;15.20;99.90;;;;;;5000971;28;20030;-69
2023/04/23 05:05:23;;;;;;;7.03;4.50;;;15.10;99.90;;;;;;5000189;28;20034;-69
2023/04/23 05:07:50;;;;;;;5.97;4.75;;;15.10;99.90;;;;;;4991132;28;20622;-69
2023/04/23 05:10:15;;;;;;;5.53;4.28;;;15.10;99.90;;;;;;4978115;28;20049;-69
2023/04/23 05:12:42;;;;;;;5.53;3.97;;;15.10;99.90;;;;;;4997750;28;20835;-69
2023/04/23 05:15:12;;;;;;;5.15;4.05;;;15.10;99.90;;;;;;4996684;28;20394;-69
2023/04/23 05:17:41;;;;;;;5.63;4.63;;;15.20;99.90;;;;;;4982658;28;20029;-69
2023/04/23 05:20:10;;;;;;;6.22;4.88;;;15.20;99.90;;;;;;4992399;28;20048;-69
2023/04/23 05:22:37;;;;;;;6.65;4.70;;;15.20;99.90;;;;;;4991692;28;20629;-69
2023/04/23 05:25:05;;;;;;;6.72;4.60;;;15.30;99.90;;;;;;4989643;28;20080;-69
2023/04/23 05:27:30;;;;;;;5.70;4.38;;;15.30;99.90;;;;;;5000706;28;20045;-69
2023/04/23 05:29:58;;;;;;;5.82;4.72;;;15.30;99.90;;;;;;4985783;28;20870;-69
2023/04/23 05:32:24;;;;;;;6.95;4.82;;;15.30;99.90;;;;;;5001810;28;20840;-69
2023/04/23 05:34:50;;;;;;;6.20;4.97;;;15.40;99.90;;;;;;4998430;28;20109;-69
2023/04/23 05:37:16;;;;;;;6.15;4.80;;;15.30;99.90;;;;;;5003498;28;20042;-69
2023/04/23 05:39:42;;;;;;;6.40;4.57;;;15.40;99.90;;;;;;5004666;28;20095;-69
2023/04/23 05:42:07;;;;;;;5.15;4.60;;;15.40;99.90;;;;;;4998543;28;20034;-69
2023/04/23 05:44:33;;;;;;;6.65;4.45;;;15.50;99.90;;;;;;4997559;28;20030;-69
2023/04/23 05:46:59;;;;;;;7.93;5.63;;;15.50;99.90;;;;;;4986231;28;20618;-69
2023/04/23 05:49:26;;;;;;;7.72;5.20;;;15.60;99.90;;;;;;4994595;28;20141;-69
2023/04/23 05:51:51;;;;;;;7.95;5.13;;;15.70;99.90;;;;;;4999467;28;20057;-69
2023/04/23 05:54:18;;;;;;;5.47;4.30;;;15.70;99.90;;;;;;4985970;28;20136;-69
2023/04/23 05:56:44;;;;;;;5.88;4.93;;;15.70;99.90;;;;;;5000395;28;20091;-69
2023/04/23 05:59:10;;;;;;;9.45;5.28;;;15.70;99.90;;;;;;4998138;28;20041;-70
2023/04/23 06:01:36;;;;;;;6.03;4.75;;;15.80;99.90;;;;;;4998129;28;20072;-69
2023/04/23 06:04:02;;;;;;;8.30;5.65;;;15.80;99.90;;;;;;4999425;28;20148;-69
2023/04/23 06:06:28;;;;;;;5.85;4.60;;;15.80;99.90;;;;;;4998029;28;20041;-69
2023/04/23 06:08:53;;;;;;;8.25;5.43;;;15.80;99.90;;;;;;4999475;28;20022;-69
2023/04/23 06:11:20;;;;;;;6.68;5.68;;;15.80;99.90;;;;;;4985715;28;20033;-69
2023/04/23 06:13:46;;;;;;;6.18;4.72;;;15.80;99.90;;;;;;5001309;28;20539;-69
2023/04/23 06:16:11;;;;;;;5.13;4.55;;;15.70;99.90;;;;;;5001241;28;20153;-69
2023/04/23 06:18:38;;;;;;;7.07;5.10;;;15.70;99.90;;;;;;4996119;28;20771;-69
2023/04/23 06:21:04;;;;;;;8.82;5.05;;;15.70;99.90;;;;;;5001761;28;20393;-69
2023/04/23 06:23:31;;;;;;;6.45;4.65;;;15.70;99.90;;;;;;4996561;28;20041;-69
2023/04/23 06:25:57;;;;;;;7.30;5.03;;;15.70;99.90;;;;;;4992346;28;20041;-69
2023/04/23 06:28:23;;;;;;;7.22;4.70;;;15.60;99.90;;;;;;4994965;28;20683;-68
2023/04/23 06:31:25;;;;;;;9.85;5.38;;;15.60;99.90;;;;;;4986687;28;20124;-69
2023/04/23 06:33:50;;;;;;;5.97;4.45;;;15.70;99.90;;;;;;4994513;28;20472;-69
2023/04/23 06:36:16;;;;;;;7.28;5.18;;;15.60;99.90;;;;;;4998142;28;20031;-69
2023/04/23 06:38:43;;;;;;;8.05;4.57;;;15.50;99.90;;;;;;4997363;28;20121;-69
2023/04/23 06:41:11;;;;;;;8.52;5.82;;;15.40;99.90;;;;;;4995715;28;20034;-69
2023/04/23 06:43:38;;;;;;;8.70;5.30;;;15.30;99.90;;;;;;4997671;28;20493;-69
2023/04/23 06:46:27;;;;;;;6.03;4.82;;;15.30;99.90;;;;;;4987781;28;20050;-69
2023/04/23 06:48:52;;;;;;;6.43;5.25;;;15.40;99.90;;;;;;4995869;28;20084;-69
2023/04/23 06:51:18;;;;;;;9.60;6.03;;;15.40;99.90;;;;;;5002837;28;20030;-69
2023/04/23 06:53:44;;;;;;;6.35;4.95;;;15.50;99.90;;;;;;4994587;28;20034;-69
2023/04/23 06:56:10;;;;;;;6.35;5.15;;;15.50;99.90;;;;;;4997647;28;20048;-69
2023/04/23 06:58:36;;;;;;;7.53;5.53;;;15.50;99.90;;;;;;4994982;28;20041;-69
2023/04/23 07:01:12;;;;;;;11.10;5.55;;;15.50;99.90;;;;;;4982757;28;20042;-69
2023/04/23 07:03:38;;;;;;;9.25;5.70;;;15.50;99.90;;;;;;4996206;28;20026;-69
2023/04/23 07:06:04;;;;;;;5.82;5.28;;;15.50;99.90;;;;;;4997766;28;20719;-69
2023/04/23 07:08:31;;;;;;;8.35;5.00;;;15.50;99.90;;;;;;4986486;28;20480;-69
2023/04/23 07:10:56;;;;;;;7.25;5.70;;;15.50;99.90;;;;;;4995015;28;20741;-69
2023/04/23 07:13:23;;;;;;;8.32;5.20;;;15.60;99.90;;;;;;4997155;28;20040;-69
2023/04/23 07:15:49;;;;;;;10.23;5.35;;;15.60;99.90;;;;;;4996459;28;20201;-69
2023/04/23 07:18:15;;;;;;;6.43;5.18;;;15.50;99.90;;;;;;4998079;28;20034;-69
2023/04/23 07:20:41;;;;;;;7.65;4.80;;;15.50;99.90;;;;;;4998360;28;20029;-69
2023/04/23 07:23:07;;;;;;;11.90;6.07;;;15.50;99.90;;;;;;4997744;28;20314;-69
2023/04/23 07:25:32;;;;;;;6.68;5.65;;;15.50;99.90;;;;;;4996114;28;20029;-69
2023/04/23 07:27:58;;;;;;;14.82;5.63;;;15.40;99.90;;;;;;4990525;28;20469;-70
2023/04/23 07:30:25;;;;;;;6.53;5.20;;;15.40;99.90;;;;;;4998383;28;20056;-68
2023/04/23 07:32:52;;;;;;;7.30;5.65;;;15.40;99.90;;;;;;4997287;28;20030;-72
2023/04/23 07:35:17;;;;;;;8.00;5.93;;;15.40;99.90;;;;;;4996158;28;20425;-69
2023/04/23 07:37:43;;;;;;;8.25;5.47;;;15.50;99.90;;;;;;4996844;28;20041;-70
2023/04/23 07:40:09;;;;;;;10.30;5.95;;;15.50;99.90;;;;;;4993536;28;20153;-68
2023/04/23 07:42:35;;;;;;;11.65;5.78;;;15.50;99.90;;;;;;4979576;28;20026;-66
2023/04/23 07:45:01;;;;;;;7.63;5.40;;;15.60;99.90;;;;;;4996775;28;20652;-70
2023/04/23 07:47:27;;;;;;;5.90;4.80;;;15.70;99.90;;;;;;4991448;28;20050;-69
2023/04/23 07:49:53;;;;;;;7.78;5.38;;;15.70;99.90;;;;;;4998943;28;20034;-68
2023/04/23 07:52:18;;;;;;;6.32;5.00;;;15.80;99.90;;;;;;4995912;28;20038;-68
2023/04/23 07:54:45;;;;;;;7.75;5.13;;;15.80;99.90;;;;;;4998146;28;20033;-69
2023/04/23 07:57:11;;;;;;;6.80;5.30;;;15.90;99.90;;;;;;4992480;28;20038;-68
2023/04/23 07:59:38;;;;;;;7.93;5.57;;;15.90;99.90;;;;;;4999607;28;20041;-67
2023/04/23 08:02:04;;;;;;;8.25;5.85;;;15.90;99.90;;;;;;4993964;28;20521;-71
2023/04/23 08:04:30;;;;;;;9.00;5.40;;;15.90;99.90;;;;;;4996464;28;20034;-74
2023/04/23 08:06:56;;;;;;;8.77;5.35;;;15.80;99.90;;;;;;4994594;28;20037;-71
2023/04/23 08:09:23;;;;;;;7.88;5.53;;;15.80;99.90;;;;;;4988976;28;20097;-71
2023/04/23 08:11:49;;;;;;;9.52;5.72;;;15.80;99.90;;;;;;4996419;28;20482;-68
2023/04/23 08:14:14;;;;;;;10.70;5.85;;;15.80;99.90;;;;;;4995209;28;20080;-70
2023/04/23 08:16:40;;;;;;;7.80;5.60;;;15.70;99.90;;;;;;4992835;28;20509;-69
2023/04/23 08:19:06;;;;;;;7.57;5.25;;;15.60;99.90;;;;;;4984223;28;20044;-68
2023/04/23 08:21:33;;;;;;;8.75;5.70;;;15.60;99.90;;;;;;4982994;28;20720;-67
2023/04/23 08:24:00;;;;;;;11.48;5.90;;;15.60;99.90;;;;;;4992621;28;20034;-69
2023/04/23 08:26:25;;;;;;;7.47;5.55;;;15.60;99.90;;;;;;4990586;28;20456;-68
2023/04/23 08:28:51;;;;;;;7.60;6.03;;;15.60;99.90;;;;;;4996330;28;20022;-69
2023/04/23 08:31:17;;;;;;;9.07;6.63;;;15.60;99.90;;;;;;4998968;28;20121;-69
2023/04/23 08:33:43;;;;;;;10.18;6.60;;;15.70;99.90;;;;;;4997086;28;20105;-66
2023/04/23 08:36:09;;;;;;;7.72;6.20;;;15.70;99.90;;;;;;4996734;28;20049;-67
2023/04/23 08:38:34;;;;;;;8.48;5.50;;;15.80;99.90;;;;;;4997755;28;20137;-69
2023/04/23 08:41:04;;;;;;;8.57;5.72;;;15.80;99.90;;;;;;4997461;28;20041;-68
2023/04/23 08:43:43;;;;;;;9.35;6.30;;;15.80;99.90;;;;;;4994101;28;20042;-69
2023/04/23 08:46:12;;;;;;;7.40;5.95;;;15.70;99.90;;;;;;4992055;28;20533;-68
2023/04/23 08:48:40;;;;;;;8.10;5.55;;;15.60;99.90;;;;;;4995140;28;20030;-68
2023/04/23 08:51:10;;;;;;;8.30;5.88;;;15.50;99.90;;;;;;4987996;28;20173;-69
2023/04/23 08:53:37;;;;;;;6.80;4.68;;;15.50;99.90;;;;;;4986648;28;20042;-66
2023/04/23 08:56:05;;;;;;;6.20;5.13;;;15.50;99.90;;;;;;4992821;28;20048;-66
2023/04/23 08:58:32;;;;;;;6.65;4.38;;;15.50;99.90;;;;;;4982461;28;20101;-66
2023/04/23 09:00:58;;;;;;;3.90;3.25;;;15.50;99.90;;;;;;5000146;28;20082;-68
2023/04/23 09:03:24;;;;;;;3.63;2.22;;;15.60;99.90;;;;;;5000355;28;20030;-66
2023/04/23 09:05:52;;;;;;;3.40;2.60;;;15.60;99.90;;;;;;5001439;28;20033;-66
2023/04/23 09:08:20;;;;;;;2.85;2.10;;;15.50;99.90;;;;;;5000598;28;20041;-66
2023/04/23 09:10:45;;;;;;;1.80;1.70;;;15.50;99.90;;;;;;4994718;28;20589;-66
2023/04/23 09:13:12;;;;;;;9.25;2.72;;;15.50;99.90;;;;;;5004290;28;20112;-67
2023/04/23 09:15:42;;;;;;;3.67;2.50;;;15.50;99.90;;;;;;5001531;28;20549;-66
2023/04/23 09:18:09;;;;;;;3.17;2.42;;;15.50;99.90;;;;;;4996136;28;20105;-66
2023/04/23 09:20:35;;;;;;;2.65;2.45;;;15.50;99.90;;;;;;4996144;28;20405;-66
2023/04/23 09:23:06;;;;;;;4.22;3.40;;;15.50;99.90;;;;;;4986984;28;20075;-66
2023/04/23 09:25:32;;;;;;;4.72;4.22;;;15.50;99.90;;;;;;4992278;28;20630;-66
2023/04/23 09:28:00;;;;;;;4.90;4.28;;;15.60;99.90;;;;;;4993137;28;20181;-67
2023/04/23 09:30:26;;;;;;;5.93;4.70;;;15.60;99.90;;;;;;4998004;28;20045;-66
2023/04/23 09:32:52;;;;;;;5.47;4.15;;;15.50;99.90;;;;;;4994336;28;20026;-66
2023/04/23 09:35:18;;;;;;;8.68;5.53;;;15.50;99.90;;;;;;4995078;28;20026;-66
2023/04/23 09:37:49;;;;;;;8.88;5.68;;;15.50;99.90;;;;;;4996039;28;20402;-65
2023/04/23 09:40:21;;;;;;;9.48;6.53;;;15.50;99.90;;;;;;4981563;28;20423;-64
2023/04/23 09:42:53;;;;;;;10.15;6.70;;;15.50;99.90;;;;;;4997297;28;20041;-66
2023/04/23 09:45:19;;;;;;;12.88;8.23;;;15.50;99.90;;;;;;5001123;28;20073;-66
2023/04/23 09:47:50;;;;;;;13.77;10.38;;;15.50;99.90;;;;;;5002588;28;20041;-66
2023/04/23 09:50:17;;;;;;;14.32;10.32;;;15.50;99.90;;;;;;5001858;28;20065;-67
2023/04/23 09:52:43;;;;;;;14.70;10.75;;;15.60;99.90;;;;;;5002173;28;20038;-67
2023/04/23 09:55:09;;;;;;;16.65;11.05;;;15.70;99.90;;;;;;4994005;28;20033;-67
2023/04/23 09:57:41;;;;;;;15.82;10.55;;;15.80;99.90;;;;;;5001759;28;20517;-67
2023/04/23 10:00:19;;;;;;;16.48;11.25;;;16.00;99.90;;;;;;4993668;28;20037;-64
2023/04/23 10:02:49;;;;;;;16.48;10.43;;;16.20;99.90;;;;;;5002103;28;20029;-65
2023/04/23 10:05:20;;;;;;;17.50;11.35;;;16.30;99.90;;;;;;4996393;28;20476;-66
2023/04/23 10:07:47;;;;;;;16.17;11.43;;;16.50;99.90;;;;;;4995046;28;20039;-66
2023/04/23 10:10:17;;;;;;;17.65;12.00;;;16.50;99.90;;;;;;4993048;28;20026;-66
2023/04/23 10:12:44;;;;;;;16.40;11.20;;;16.60;99.90;;;;;;4997549;28;20032;-66
2023/04/23 10:15:11;;;;;;;13.65;10.27;;;16.50;99.90;;;;;;4999674;28;20448;-66
2023/04/23 10:17:37;;;;;;;14.80;10.05;;;16.50;99.90;;;;;;4996684;28;20058;-66
2023/04/23 10:20:05;;;;;;;12.85;9.27;;;16.40;99.90;;;;;;4995754;28;20029;-67
2023/04/23 10:22:33;;;;;;;14.43;9.68;;;16.40;99.90;;;;;;5002750;28;20490;-66
2023/04/23 10:25:05;;;;;;;11.75;8.38;;;16.30;99.90;;;;;;5004022;28;20048;-66
2023/04/23 10:27:32;;;;;;;8.52;7.25;;;16.40;99.90;;;;;;4998582;28;20033;-66
2023/04/23 10:29:59;;;;;;;12.98;8.60;;;16.50;99.90;;;;;;4997446;28;20041;-66
2023/04/23 10:32:26;;;;;;;11.75;7.13;;;16.50;99.90;;;;;;5000047;28;20477;-66
2023/04/23 10:34:52;;;;;;;9.50;6.45;;;16.50;99.90;;;;;;4997753;28;20029;-69
2023/04/23 10:37:19;;;;;;;9.48;6.50;;;16.50;99.90;;;;;;4991941;28;20053;-70
2023/04/23 10:39:54;;;;;;;8.63;6.45;;;16.50;99.90;;;;;;4996030;28;20751;-67
2023/04/23 10:42:21;;;;;;;12.80;8.50;;;16.50;99.90;;;;;;4996440;28;20049;-68
2023/04/23 10:44:47;;;;;;;9.60;6.47;;;16.60;99.90;;;;;;4992594;28;20103;-68
2023/04/23 10:47:16;;;;;;;11.48;6.32;;;16.60;99.90;;;;;;4994419;28;20022;-67
2023/04/23 10:49:43;;;;;;;6.05;4.60;;;16.60;99.90;;;;;;4992294;28;20027;-66
2023/04/23 10:52:15;;;;;;;7.45;4.15;;;16.60;99.90;;;;;;4994674;28;20061;-70
2023/04/23 10:54:56;;;;;;;5.13;4.07;;;16.60;99.90;;;;;;4997789;28;20030;-66
2023/04/23 10:57:22;;;;;;;5.38;3.88;;;16.50;99.90;;;;;;4997630;28;20127;-66
2023/04/23 10:59:53;;;;;;;6.38;4.20;;;16.50;99.90;;;;;;4999008;28;20054;-66
2023/04/23 11:02:19;;;;;;;4.53;3.83;;;16.40;99.90;;;;;;5000023;28;20029;-67
2023/04/23 11:04:55;;;;;;;6.25;4.65;;;16.40;99.90;;;;;;5000552;28;20832;-66
2023/04/23 11:07:30;;;;;;;7.05;4.93;;;16.50;99.90;;;;;;4998388;28;20038;-67
2023/04/23 11:09:59;;;;;;;6.78;5.18;;;16.60;99.50;;;;;;4998482;28;20038;-66
2023/04/23 11:12:32;;;;;;;7.53;5.22;;;16.70;99.90;;;;;;4996035;28;20148;-65
2023/04/23 11:15:08;;;;;;;5.65;4.57;;;16.70;99.30;;;;;;4998517;28;20488;-65
2023/04/23 11:17:34;;;;;;;5.78;4.32;;;16.90;99.10;;;;;;4995815;28;20088;-64
2023/04/23 11:20:03;;;;;;;5.28;4.15;;;17.00;98.70;;;;;;4993694;28;20913;-65
2023/04/23 11:22:42;;;;;;;5.70;4.25;;;17.10;99.20;;;;;;4997792;28;20037;-65
2023/04/23 11:25:18;;;;;;;6.57;4.45;;;17.40;98.20;;;;;;4994153;28;20076;-64
2023/04/23 11:27:46;;;;;;;6.65;4.70;;;17.60;97.40;;;;;;4994326;28;20646;-64
2023/04/23 11:30:14;;;;;;;11.32;5.72;;;17.80;98.80;;;;;;4997194;28;20034;-67
2023/04/23 11:32:41;;;;;;;9.75;6.28;;;17.80;95.70;;;;;;4990795;28;20176;-70
2023/04/23 11:35:08;;;;;;;8.05;5.60;;;17.80;96.20;;;;;;5000764;28;20644;-65
2023/04/23 11:37:39;;;;;;;8.77;6.18;;;18.00;97.60;;;;;;5002146;28;20595;-69
2023/04/23 11:40:08;;;;;;;6.68;5.38;;;18.20;97.50;;;;;;5001096;28;20073;-70
2023/04/23 11:42:53;;;;;;;8.23;5.32;;;18.30;97.60;;;;;;4997757;28;20068;-67
2023/04/23 11:45:27;;;;;;;9.93;6.25;;;18.40;96.90;;;;;;4998887;28;20045;-67
2023/04/23 11:47:55;;;;;;;9.65;6.93;;;18.60;96.00;;;;;;4991606;28;20142;-66
2023/04/23 11:50:29;;;;;;;8.77;6.03;;;18.70;96.20;;;;;;4995116;28;20521;-67
2023/04/23 11:52:56;;;;;;;9.55;5.22;;;18.80;95.90;;;;;;4993603;28;20038;-65
2023/04/23 11:55:22;;;;;;;7.18;5.32;;;18.90;94.70;;;;;;4992982;28;20508;-67
2023/04/23 11:57:51;;;;;;;7.03;4.88;;;19.10;94.00;;;;;;4995200;28;20038;-67
2023/04/23 12:00:25;;;;;;;10.50;5.20;;;19.20;93.30;;;;;;4995375;28;20044;-67
2023/04/23 12:02:58;;;;;;;7.85;5.60;;;19.20;92.40;;;;;;4994874;28;20030;-67
2023/04/23 12:05:28;;;;;;;8.15;5.68;;;19.10;93.20;;;;;;4983572;28;20041;-67
2023/04/23 12:08:04;;;;;;;8.45;5.35;;;19.20;92.60;;;;;;4990206;28;20038;-67
2023/04/23 12:10:30;;;;;;;5.95;4.13;;;19.00;91.40;;;;;;4994676;28;20116;-67
2023/04/23 12:12:57;;;;;;;5.63;4.03;;;19.00;91.90;;;;;;4997908;28;20033;-66
2023/04/23 12:15:23;;;;;;;4.93;3.53;;;19.10;90.80;;;;;;5000231;28;20030;-67
2023/04/23 12:17:50;;;;;;;8.50;5.25;;;19.20;91.40;;;;;;5000075;28;20386;-67
2023/04/23 12:20:18;;;;;;;6.10;4.78;;;19.40;91.10;;;;;;4998156;28;20054;-67
2023/04/23 12:22:44;;;;;;;6.25;3.58;;;19.60;90.30;;;;;;4998691;28;20057;-67
2023/04/23 12:25:10;;;;;;;11.85;5.80;;;19.40;88.00;;;;;;4992240;28;20613;-67
2023/04/23 12:27:44;;;;;;;13.98;5.18;;;19.40;88.60;;;;;;4995860;28;20042;-67
2023/04/23 12:30:10;;;;;;;10.10;4.68;;;19.20;86.20;;;;;;4994008;28;20141;-67
2023/04/23 12:32:37;;;;;;;11.07;4.70;;;19.10;85.90;;;;;;4998113;28;20026;-67
2023/04/23 12:35:05;;;;;;;7.22;3.15;;;19.00;88.00;;;;;;4993734;28;20034;-67
2023/04/23 12:37:35;;;;;;;5.10;3.13;;;19.00;89.00;;;;;;4999755;28;20030;-67
2023/04/23 12:40:01;;;;;;;11.57;4.30;;;19.10;89.10;;;;;;5001660;28;20073;-67
2023/04/23 12:42:27;;;;;;;8.02;4.22;;;19.10;87.60;;;;;;5003609;28;20034;-68
2023/04/23 12:44:55;;;;;;;5.25;3.05;;;19.00;86.90;;;;;;4999329;28;20686;-67
2023/04/23 12:47:20;;;;;;;4.75;2.70;;;19.00;86.70;;;;;;5004753;28;20149;-68